Time;durP1;ratioP1;P1;durP2;ratioP2;P2;SDS_P1;SDS_P2;PMS_P1;PMS_P2;Temp;Humidity;BMP_temperature;BMP_pressure;BME280_temperature;BME280_humidity;BME280_pressure;Samples;Min_cycle;Max_cycle;Signal;HPM_P1;HPM_P2
2021/01/11 00:00:35;;;;;;;32.75;22.60;;;;;;;-0.20;72.38;98955.30;1828764;78;20916;-64
2021/01/11 00:03:04;;;;;;;31.23;22.15;;;;;;;-0.23;72.41;98954.48;1758549;81;21488;-63
2021/01/11 00:05:32;;;;;;;29.23;21.65;;;;;;;-0.26;72.53;98949.26;1789659;80;20959;-64
2021/01/11 00:08:01;;;;;;;28.95;21.23;;;;;;;-0.29;72.62;98953.27;1828736;78;20919;-63
2021/01/11 00:10:29;;;;;;;33.58;21.62;;;;;;;-0.32;72.84;98952.00;1828846;78;20979;-63
2021/01/11 00:12:57;;;;;;;33.73;23.38;;;;;;;-0.35;73.08;98954.23;1758502;81;20990;-63
2021/01/11 00:15:24;;;;;;;33.98;21.95;;;;;;;-0.37;73.39;98955.57;1789734;80;21461;-63
2021/01/11 00:17:52;;;;;;;32.40;22.17;;;;;;;-0.38;73.57;98941.97;1828632;78;20939;-63
2021/01/11 00:20:19;;;;;;;29.90;21.52;;;;;;;-0.36;73.69;98944.59;1758464;81;21024;-64
2021/01/11 00:22:48;;;;;;;30.40;23.07;;;;;;;-0.35;73.68;98931.79;1789561;80;20995;-63
2021/01/11 00:25:18;;;;;;;33.40;22.73;;;;;;;-0.34;73.97;98936.64;1828774;78;21014;-64
2021/01/11 00:27:46;;;;;;;32.10;22.62;;;;;;;-0.34;74.01;98934.00;1758423;81;21393;-63
2021/01/11 00:30:15;;;;;;;29.57;21.23;;;;;;;-0.34;74.11;98932.69;1733201;80;20896;-63
2021/01/11 00:32:43;;;;;;;30.65;21.15;;;;;;;-0.33;73.96;98925.17;1828644;78;20934;-63
2021/01/11 00:35:10;;;;;;;30.15;21.40;;;;;;;-0.34;73.71;98922.98;1828716;78;20876;-63
2021/01/11 00:37:38;;;;;;;36.00;23.38;;;;;;;-0.33;73.65;98926.48;1828767;78;20959;-64
2021/01/11 00:40:08;;;;;;;34.15;23.50;;;;;;;-0.33;73.57;98925.17;1758582;81;21335;-63
2021/01/11 00:42:35;;;;;;;31.48;22.07;;;;;;;-0.34;73.67;98926.09;1789645;80;20940;-63
2021/01/11 00:45:06;;;;;;;31.87;22.20;;;;;;;-0.35;73.69;98926.97;1828693;78;20931;-63
2021/01/11 00:47:39;;;;;;;36.42;23.25;;;;;;;-0.38;73.81;98924.81;1758536;81;20964;-63
2021/01/11 00:50:09;;;;;;;35.05;22.67;;;;;;;-0.37;73.85;98927.86;1789821;80;21563;-64
2021/01/11 00:52:38;;;;;;;35.95;23.47;;;;;;;-0.37;73.82;98931.81;1796528;78;21200;-64
2021/01/11 00:55:09;;;;;;;37.38;25.40;;;;;;;-0.39;73.86;98921.74;1822333;78;20952;-64
2021/01/11 00:57:39;;;;;;;32.67;23.80;;;;;;;-0.37;73.86;98934.45;1805566;79;20956;-64
2021/01/11 01:00:11;;;;;;;34.40;23.92;;;;;;;-0.37;73.79;98929.17;1739229;82;21029;-62
2021/01/11 01:02:52;;;;;;;28.17;20.40;;;;;;;-0.37;73.71;98927.00;1766997;81;20945;-62
2021/01/11 01:05:21;;;;;;;28.87;20.57;;;;;;;-0.38;73.22;98924.81;1739301;82;21207;-63
2021/01/11 01:07:49;;;;;;;30.02;21.48;;;;;;;-0.37;73.37;98933.14;1739274;82;21020;-64
2021/01/11 01:10:17;;;;;;;27.07;20.72;;;;;;;-0.38;73.43;98926.56;1769850;81;20952;-64
2021/01/11 01:12:45;;;;;;;36.70;23.27;;;;;;;-0.39;73.33;98925.70;1739236;82;20932;-64
2021/01/11 01:15:14;;;;;;;37.40;25.92;;;;;;;-0.38;73.45;98929.20;1737792;82;20921;-64
2021/01/11 01:17:41;;;;;;;37.03;25.82;;;;;;;-0.38;73.72;98932.73;1769793;81;22085;-64
2021/01/11 01:20:15;;;;;;;41.77;27.70;;;;;;;-0.37;73.74;98939.73;1739291;82;20945;-63
2021/01/11 01:22:47;;;;;;;39.63;27.45;;;;;;;-0.37;73.60;98936.23;1778484;80;21374;-62
2021/01/11 01:25:15;;;;;;;47.78;29.87;;;;;;;-0.36;73.52;98937.98;1805739;79;20921;-64
2021/01/11 01:27:44;;;;;;;49.05;31.17;;;;;;;-0.37;73.58;98938.88;1739434;82;20962;-62
2021/01/11 01:30:13;;;;;;;44.93;28.73;;;;;;;-0.34;73.48;98939.28;1769789;81;21270;-63
2021/01/11 01:32:42;;;;;;;22.65;16.30;;;;;;;-0.34;73.48;98937.96;1739260;82;20916;-62
2021/01/11 01:35:11;;;;;;;36.55;23.83;;;;;;;-0.37;71.87;98929.17;1739388;82;20960;-62
2021/01/11 01:37:40;;;;;;;42.10;26.48;;;;;;;-0.37;71.86;98927.86;1746496;81;20988;-64
2021/01/11 01:40:11;;;;;;;44.70;27.32;;;;;;;-0.38;72.21;98923.50;1739367;82;21020;-63
2021/01/11 01:42:39;;;;;;;49.98;31.25;;;;;;;-0.37;72.48;98923.89;1739250;82;21340;-63
2021/01/11 01:45:09;;;;;;;31.20;19.85;;;;;;;-0.38;72.40;98918.22;1769727;81;21257;-64
2021/01/11 01:47:37;;;;;;;31.57;20.62;;;;;;;-0.39;72.15;98920.42;1739362;82;21069;-63
2021/01/11 01:50:07;;;;;;;52.53;30.72;;;;;;;-0.36;72.05;98922.16;1778301;80;20940;-62
2021/01/11 01:52:36;;;;;;;63.08;37.33;;;;;;;-0.37;72.08;98922.58;1805720;79;20921;-63
2021/01/11 01:55:07;;;;;;;52.25;34.78;;;;;;;-0.37;72.09;98918.62;1739165;82;22071;-64
2021/01/11 01:57:35;;;;;;;27.10;18.55;;;;;;;-0.36;71.98;98914.23;1769902;81;21381;-64
2021/01/11 02:00:05;;;;;;;20.92;15.68;;;;;;;-0.34;71.58;98907.61;1739305;82;20949;-64
2021/01/11 02:02:35;;;;;;;15.15;12.95;;;;;;;-0.33;71.42;98910.65;1737148;82;20945;-64
2021/01/11 02:05:05;;;;;;;18.50;14.05;;;;;;;-0.32;71.25;98909.77;1769735;81;20937;-64
2021/01/11 02:07:59;;;;;;;17.75;13.35;;;;;;;-0.33;71.20;98901.41;1739445;82;21284;-64
2021/01/11 02:11:17;;;;;;;15.60;12.65;;;;;;;-0.33;71.06;98906.27;1739403;82;21537;-63
2021/01/11 02:13:54;;;;;;;14.15;11.43;;;;;;;-0.34;70.76;98904.51;1769754;81;21019;-63
2021/01/11 02:16:50;;;;;;;9.38;7.53;;;;;;;-0.36;70.65;98901.03;1739308;82;20928;-63
2021/01/11 02:19:46;;;;;;;6.05;5.45;;;;;;;-0.34;69.88;98901.01;1737666;82;21009;-65
2021/01/11 02:22:28;;;;;;;8.35;6.65;;;;;;;-0.35;68.23;98901.89;1738729;82;21601;-63
2021/01/11 02:25:11;;;;;;;8.93;6.95;;;;;;;-0.35;67.38;98901.89;1750370;81;20977;-64
2021/01/11 02:27:53;;;;;;;8.28;7.42;;;;;;;-0.35;67.14;98893.98;1739373;82;21009;-63
2021/01/11 02:30:30;;;;;;;10.18;8.38;;;;;;;-0.34;67.36;98901.01;1769884;81;20933;-64
2021/01/11 02:33:07;;;;;;;10.23;7.25;;;;;;;-0.35;67.33;98898.80;1739356;82;20998;-65
2021/01/11 02:35:55;;;;;;;11.03;8.73;;;;;;;-0.35;67.67;98897.48;1769984;81;21200;-63
2021/01/11 02:38:23;;;;;;;10.58;8.20;;;;;;;-0.34;67.55;98890.45;1739310;82;20926;-63
2021/01/11 02:40:51;;;;;;;11.12;9.30;;;;;;;-0.35;67.64;98882.09;1770060;81;20941;-63
2021/01/11 02:43:19;;;;;;;12.20;9.78;;;;;;;-0.34;67.77;98889.13;1739389;82;21554;-63
2021/01/11 02:45:47;;;;;;;11.45;9.75;;;;;;;-0.33;67.86;98886.89;1769927;81;20984;-64
2021/01/11 02:48:29;;;;;;;15.90;11.93;;;;;;;-0.34;67.52;98881.22;1739385;82;21203;-64
2021/01/11 02:51:11;;;;;;;;;;;;;;;-0.35;67.50;98886.92;1772676;81;20982;-64
2021/01/11 02:53:55;;;;;;;10.95;8.78;;;;;;;-0.33;66.95;98889.53;1769655;81;20128;-64
2021/01/11 02:56:37;;;;;;;9.85;8.13;;;;;;;-0.34;66.93;98889.13;1748669;81;20945;-62
2021/01/11 02:59:18;;;;;;;7.87;6.85;;;;;;;-0.35;66.89;98892.20;1789522;80;20928;-64
2021/01/11 03:01:56;;;;;;;9.78;8.08;;;;;;;-0.37;66.88;98884.30;1750504;81;21219;-64
2021/01/11 03:04:25;;;;;;;17.55;13.65;;;;;;;-0.36;67.02;98885.20;1789480;80;20901;-63
2021/01/11 03:07:01;;;;;;;24.32;15.15;;;;;;;-0.37;66.93;98890.91;1758296;81;20947;-64
2021/01/11 03:09:30;;;;;;;14.70;11.55;;;;;;;-0.37;66.63;98892.22;1758267;81;20961;-63
2021/01/11 03:11:59;;;;;;;18.45;13.38;;;;;;;-0.38;66.34;98882.59;1789579;80;20979;-64
2021/01/11 03:14:27;;;;;;;18.57;14.25;;;;;;;-0.34;66.21;98887.81;1758289;81;21274;-64
2021/01/11 03:16:54;;;;;;;16.12;13.20;;;;;;;-0.34;66.22;98882.53;1792524;80;20936;-64
2021/01/11 03:19:22;;;;;;;12.68;9.15;;;;;;;-0.35;66.40;98883.42;1792493;79;20935;-64
2021/01/11 03:21:50;;;;;;;9.98;7.55;;;;;;;-0.35;66.52;98878.14;1758369;81;21564;-64
2021/01/11 03:24:19;;;;;;;9.05;7.72;;;;;;;-0.37;66.06;98877.70;1789553;80;21015;-63
2021/01/11 03:26:47;;;;;;;11.78;8.43;;;;;;;-0.36;66.32;98882.56;1758322;81;22290;-63
2021/01/11 03:29:16;;;;;;;9.40;7.75;;;;;;;-0.37;66.41;98886.94;1789429;80;21466;-63
2021/01/11 03:31:45;;;;;;;7.40;6.55;;;;;;;-0.37;66.72;98881.66;1758313;81;20945;-63
2021/01/11 03:34:13;;;;;;;7.20;6.00;;;;;;;-0.37;66.62;98881.66;1789465;80;20900;-63
2021/01/11 03:36:42;;;;;;;9.30;7.72;;;;;;;-0.38;66.19;98885.23;1758281;81;20926;-63
2021/01/11 03:39:10;;;;;;;7.78;6.97;;;;;;;-0.37;66.79;98881.66;1789467;80;21140;-63
2021/01/11 03:41:40;;;;;;;9.48;6.85;;;;;;;-0.35;66.80;98887.38;1758131;81;21001;-63
2021/01/11 03:44:09;;;;;;;8.75;6.58;;;;;;;-0.37;66.66;98877.70;1789490;80;20999;-64
2021/01/11 03:46:37;;;;;;;7.50;6.70;;;;;;;-0.36;66.58;98877.28;1758281;81;21478;-64
2021/01/11 03:49:05;;;;;;;6.62;5.87;;;;;;;-0.37;66.73;98877.70;1789501;80;20913;-64
2021/01/11 03:51:33;;;;;;;6.35;5.42;;;;;;;-0.35;66.69;98880.78;1758329;81;21386;-63
2021/01/11 03:54:00;;;;;;;7.10;5.78;;;;;;;-0.38;66.57;98877.31;1789362;80;20951;-63
2021/01/11 03:56:28;;;;;;;4.47;4.08;;;;;;;-0.36;66.58;98878.59;1750693;81;21014;-63
2021/01/11 03:58:58;;;;;;;4.50;3.52;;;;;;;-0.37;65.62;98877.70;1769833;81;21007;-63
2021/01/11 04:01:27;;;;;;;9.50;6.65;;;;;;;-0.38;65.62;98877.31;1739506;82;21033;-63
2021/01/11 04:03:56;;;;;;;10.93;8.58;;;;;;;-0.38;65.09;98877.31;1770022;81;21403;-64
2021/01/11 04:06:24;;;;;;;8.63;6.42;;;;;;;-0.38;65.10;98886.55;1739181;82;20958;-63
2021/01/11 04:08:51;;;;;;;6.28;4.15;;;;;;;-0.38;65.28;98883.91;1769906;81;20925;-64
2021/01/11 04:11:20;;;;;;;5.90;4.83;;;;;;;-0.39;64.89;98880.83;1739355;82;21029;-64
2021/01/11 04:13:48;;;;;;;7.37;5.58;;;;;;;-0.40;65.25;98885.67;1769905;81;20976;-63
2021/01/11 04:16:17;;;;;;;7.35;5.03;;;;;;;-0.40;65.69;98879.08;1739260;82;21361;-64
2021/01/11 04:18:45;;;;;;;4.92;4.08;;;;;;;-0.40;65.81;98883.03;1769785;81;20952;-63
2021/01/11 04:21:13;;;;;;;11.18;5.85;;;;;;;-0.39;65.85;98880.83;1739402;82;20954;-63
2021/01/11 04:23:42;;;;;;;4.80;4.30;;;;;;;-0.37;65.83;98883.45;1769875;81;20979;-64
2021/01/11 04:26:11;;;;;;;4.70;4.05;;;;;;;-0.37;66.04;98884.30;1739384;82;20927;-63
2021/01/11 04:28:38;;;;;;;5.53;3.80;;;;;;;-0.37;66.27;98878.17;1769877;81;21302;-63
2021/01/11 04:31:06;;;;;;;4.30;3.90;;;;;;;-0.38;66.06;98881.27;1739353;82;21057;-63
2021/01/11 04:33:34;;;;;;;4.00;3.40;;;;;;;-0.37;65.92;98871.11;1769879;81;21023;-63
2021/01/11 04:36:03;;;;;;;4.00;3.50;;;;;;;-0.39;65.39;98879.97;1739327;82;20942;-63
2021/01/11 04:38:30;;;;;;;6.12;3.98;;;;;;;-0.38;64.97;98870.70;1769936;81;21543;-63
2021/01/11 04:41:01;;;;;;;4.90;3.85;;;;;;;-0.38;64.98;98879.05;1739291;82;21448;-63
2021/01/11 04:43:28;;;;;;;3.87;3.30;;;;;;;-0.37;65.03;98875.06;1769859;81;20953;-64
2021/01/11 04:45:58;;;;;;;6.55;2.92;;;;;;;-0.38;65.25;98868.06;1739338;82;21053;-64
2021/01/11 04:48:26;;;;;;;4.83;4.00;;;;;;;-0.37;65.07;98872.89;1769776;81;21023;-63
2021/01/11 04:50:54;;;;;;;6.17;4.17;;;;;;;-0.39;65.23;98882.16;1739353;82;20934;-62
2021/01/11 04:53:21;;;;;;;6.17;4.42;;;;;;;-0.41;65.40;98877.36;1769861;81;21100;-63
2021/01/11 04:55:49;;;;;;;4.85;4.12;;;;;;;-0.40;65.11;98879.08;1716475;82;21009;-64
2021/01/11 04:58:16;;;;;;;6.78;4.92;;;;;;;-0.39;64.99;98880.83;1747417;82;21004;-62
2021/01/11 05:00:44;;;;;;;5.12;4.03;;;;;;;-0.41;64.42;98880.00;1782174;80;20924;-63
2021/01/11 05:03:12;;;;;;;10.75;8.45;;;;;;;-0.39;64.71;98875.55;1717799;83;21391;-63
2021/01/11 05:05:47;;;;;;;13.28;10.80;;;;;;;-0.39;64.81;98882.16;1782157;80;21366;-63
2021/01/11 05:08:12;;;;;;;15.10;10.65;;;;;;;-0.38;64.75;98879.05;1781586;80;21500;-63
2021/01/11 05:10:40;;;;;;;13.95;10.30;;;;;;;-0.39;65.09;98882.16;1717868;83;21020;-63
2021/01/11 05:13:11;;;;;;;11.70;10.40;;;;;;;-0.39;65.00;98879.52;1782060;80;21011;-63
2021/01/11 05:15:41;;;;;;;10.23;9.20;;;;;;;-0.39;65.11;98875.55;1717755;83;21025;-62
2021/01/11 05:18:17;;;;;;;11.50;8.03;;;;;;;-0.38;64.93;98877.73;1782123;80;21197;-63
2021/01/11 05:20:46;;;;;;;12.78;10.20;;;;;;;-0.37;64.86;98886.94;1782212;80;21358;-64
2021/01/11 05:23:16;;;;;;;14.78;10.98;;;;;;;-0.38;64.98;98882.59;1717734;83;20946;-64
2021/01/11 05:25:45;;;;;;;11.68;9.48;;;;;;;-0.37;64.70;98879.02;1782148;80;20924;-63
2021/01/11 05:28:17;;;;;;;17.85;10.20;;;;;;;-0.39;64.56;98872.91;1781960;80;20912;-64
2021/01/11 05:30:50;;;;;;;16.97;8.73;;;;;;;-0.39;64.88;98871.59;1717607;83;21043;-63
2021/01/11 05:33:23;;;;;;;10.68;9.58;;;;;;;-0.40;65.19;98876.44;1782225;80;20975;-64
2021/01/11 05:36:10;;;;;;;14.85;8.85;;;;;;;-0.41;64.95;98872.08;1717887;83;20949;-63
2021/01/11 05:38:43;;;;;;;13.88;10.53;;;;;;;-0.42;65.24;98870.33;1781555;80;21003;-64
2021/01/11 05:41:20;;;;;;;11.40;9.30;;;;;;;-0.41;65.24;98869.44;1717726;83;21143;-64
2021/01/11 05:43:48;;;;;;;12.63;9.48;;;;;;;-0.43;65.43;98867.25;1782153;80;22166;-64
2021/01/11 05:46:26;;;;;;;14.25;11.15;;;;;;;-0.43;65.33;98865.94;1717678;83;21497;-64
2021/01/11 05:49:02;;;;;;;16.27;13.85;;;;;;;-0.43;65.53;98879.13;1782182;80;20889;-64
2021/01/11 05:51:32;;;;;;;21.05;15.70;;;;;;;-0.44;65.52;98876.09;1717773;83;21561;-64
2021/01/11 05:53:59;;;;;;;23.00;16.52;;;;;;;-0.44;65.50;98879.16;1782089;80;21007;-64
2021/01/11 05:56:27;;;;;;;21.02;15.10;;;;;;;-0.43;65.61;98882.23;1720203;82;21389;-64
2021/01/11 05:59:08;;;;;;;24.70;14.18;;;;;;;-0.43;65.78;98884.41;1769728;81;21040;-64
2021/01/11 06:01:37;;;;;;;17.67;12.98;;;;;;;-0.43;65.87;98887.05;1739326;82;20936;-63
2021/01/11 06:04:06;;;;;;;21.42;12.58;;;;;;;-0.43;65.75;98892.33;1739366;82;21366;-62
2021/01/11 06:06:34;;;;;;;22.40;16.05;;;;;;;-0.41;65.93;98890.55;1769814;81;20929;-63
2021/01/11 06:09:01;;;;;;;21.50;15.18;;;;;;;-0.41;66.12;98891.88;1739394;82;21382;-63
2021/01/11 06:11:29;;;;;;;24.90;13.98;;;;;;;-0.39;66.53;98886.11;1739433;82;20992;-64
2021/01/11 06:13:59;;;;;;;13.83;11.83;;;;;;;-0.38;66.25;98889.61;1769951;81;20989;-63
2021/01/11 06:16:28;;;;;;;14.13;11.85;;;;;;;-0.35;66.17;98888.70;1739407;82;21600;-65
2021/01/11 06:18:57;;;;;;;14.63;10.55;;;;;;;-0.35;65.93;98896.61;1739347;82;20985;-64
2021/01/11 06:21:25;;;;;;;21.25;12.88;;;;;;;-0.35;65.51;98893.98;1769997;81;22063;-64
2021/01/11 06:24:13;;;;;;;16.77;11.33;;;;;;;-0.38;65.78;98893.14;1739452;82;20965;-64
2021/01/11 06:26:43;;;;;;;15.65;12.65;;;;;;;-0.38;65.78;98893.14;1739453;82;20941;-64
2021/01/11 06:29:32;;;;;;;13.65;11.50;;;;;;;-0.41;65.55;98893.19;1769847;81;20984;-63
2021/01/11 06:32:21;;;;;;;27.30;11.80;;;;;;;-0.41;64.65;98890.55;1739558;82;20983;-61
2021/01/11 06:34:49;;;;;;;25.45;10.05;;;;;;;-0.39;64.84;98906.36;1739454;82;21388;-63
2021/01/11 06:37:21;;;;;;;10.93;9.75;;;;;;;-0.44;63.71;98903.80;1769911;81;21426;-63
2021/01/11 06:39:48;;;;;;;12.53;10.23;;;;;;;-0.43;63.85;98912.13;1739377;82;20998;-64
2021/01/11 06:42:17;;;;;;;15.45;10.03;;;;;;;-0.45;63.50;98904.69;1769893;81;20925;-64
2021/01/11 06:44:49;;;;;;;11.75;8.90;;;;;;;-0.43;63.97;98900.70;1739482;82;20897;-64
2021/01/11 06:47:28;;;;;;;18.87;10.93;;;;;;;-0.43;63.84;98905.52;1739449;82;21424;-64
2021/01/11 06:50:08;;;;;;;15.28;13.05;;;;;;;-0.43;63.81;98906.84;1769926;81;21027;-68
2021/01/11 06:52:38;;;;;;;47.23;17.32;;;;;;;-0.42;63.75;98903.77;1738973;82;20897;-64
2021/01/11 06:55:14;;;;;;;22.77;12.35;;;;;;;-0.39;64.30;98908.55;1739324;82;21008;-64
2021/01/11 06:57:46;;;;;;;15.72;11.97;;;;;;;-0.38;64.46;98908.09;1775282;80;20932;-64
2021/01/11 07:00:19;;;;;;;16.00;11.88;;;;;;;-0.36;64.75;98912.91;1816984;79;21354;-65
2021/01/11 07:02:47;;;;;;;10.68;8.08;;;;;;;-0.33;64.50;98904.05;1817198;79;21015;-64
2021/01/11 07:05:38;;;;;;;25.45;11.70;;;;;;;-0.33;64.50;98904.05;1749995;82;20924;-63
2021/01/11 07:08:16;;;;;;;28.32;14.98;;;;;;;-0.31;64.69;98915.47;1816893;79;20932;-64
2021/01/11 07:10:45;;;;;;;19.75;11.63;;;;;;;-0.31;65.21;98922.08;1816876;79;21364;-65
2021/01/11 07:13:23;;;;;;;20.15;12.53;;;;;;;-0.31;64.87;98920.75;1749892;82;21378;-63
2021/01/11 07:15:57;;;;;;;31.95;14.73;;;;;;;-0.29;64.34;98912.35;1780844;80;20965;-64
2021/01/11 07:18:43;;;;;;;27.30;16.87;;;;;;;-0.28;64.27;98915.42;1816905;79;20932;-64
2021/01/11 07:21:15;;;;;;;25.08;14.78;;;;;;;-0.29;64.27;98919.81;1748498;82;20961;-64
2021/01/11 07:23:43;;;;;;;21.55;13.70;;;;;;;-0.28;64.41;98914.11;1780920;80;20928;-64
2021/01/11 07:26:16;;;;;;;23.52;14.93;;;;;;;-0.29;63.95;98916.31;1817016;78;22276;-64
2021/01/11 07:29:00;;;;;;;20.57;13.60;;;;;;;-0.27;64.16;98913.19;1749870;82;20958;-63
2021/01/11 07:31:32;;;;;;;18.42;13.22;;;;;;;-0.27;64.13;98910.55;1781156;80;21051;-66
2021/01/11 07:34:18;;;;;;;27.98;17.07;;;;;;;-0.27;64.12;98926.38;1816876;79;20928;-64
2021/01/11 07:36:50;;;;;;;48.28;35.58;;;;;;;-0.25;64.32;98923.30;1816888;79;21018;-64
2021/01/11 07:39:27;;;;;;;39.67;25.40;;;;;;;-0.24;63.63;98928.97;1816877;79;21232;-63
2021/01/11 07:42:01;;;;;;;45.23;25.80;;;;;;;-0.26;63.32;98932.09;1749648;82;21009;-63
2021/01/11 07:44:36;;;;;;;77.40;45.98;;;;;;;-0.25;63.64;98937.81;1780902;80;20950;-65
2021/01/11 07:47:08;;;;;;;36.77;27.15;;;;;;;-0.26;63.79;98930.78;1812022;79;21349;-64
2021/01/11 07:49:40;;;;;;;32.30;16.75;;;;;;;-0.26;63.66;98931.64;1749937;82;20950;-64
2021/01/11 07:52:11;;;;;;;31.57;20.17;;;;;;;-0.24;63.99;98936.89;1780778;80;21387;-63
2021/01/11 07:54:39;;;;;;;32.35;18.35;;;;;;;-0.25;64.35;98940.00;1816900;78;21003;-64
2021/01/11 07:57:12;;;;;;;42.03;25.08;;;;;;;-0.23;64.78;98934.23;1748583;82;20937;-63
2021/01/11 07:59:43;;;;;;;43.45;29.10;;;;;;;-0.23;64.11;98937.33;1769907;81;21568;-62
2021/01/11 08:02:13;;;;;;;58.80;31.77;;;;;;;-0.21;64.36;98932.42;1770020;80;21012;-63
2021/01/11 08:04:42;;;;;;;38.30;27.42;;;;;;;-0.18;64.14;98942.07;1770533;81;21406;-63
2021/01/11 08:07:11;;;;;;;28.75;22.20;;;;;;;-0.18;64.22;98942.07;1770405;81;20945;-63
2021/01/11 08:09:41;;;;;;;30.97;19.55;;;;;;;-0.16;64.53;98936.77;1770293;81;20992;-64
2021/01/11 08:12:17;;;;;;;22.67;15.48;;;;;;;-0.13;64.60;98939.36;1770414;81;21024;-63
2021/01/11 08:14:45;;;;;;;31.17;20.68;;;;;;;-0.12;64.21;98947.71;1770470;81;20936;-64
2021/01/11 08:17:19;;;;;;;28.42;18.35;;;;;;;-0.09;64.37;98942.37;1770467;81;21445;-63
2021/01/11 08:19:55;;;;;;;24.20;16.80;;;;;;;-0.09;64.79;98944.56;1770464;81;20901;-74
2021/01/11 08:22:28;;;;;;;37.15;27.05;;;;;;;-0.06;64.92;98944.50;1769866;80;21056;-68
2021/01/11 08:24:58;;;;;;;41.23;24.85;;;;;;;-0.05;64.32;98944.94;1768128;81;21600;-66
2021/01/11 08:27:43;;;;;;;30.48;20.90;;;;;;;-0.01;64.15;98940.00;1769015;81;21028;-63
2021/01/11 08:30:23;;;;;;;54.18;30.45;;;;;;;0.02;64.20;98945.69;1770374;81;21411;-64
2021/01/11 08:32:48;;;;;;;26.57;18.05;;;;;;;0.04;64.21;98941.70;1769774;80;21074;-64
2021/01/11 08:35:22;;;;;;;34.83;21.35;;;;;;;0.04;63.99;98939.92;1770345;80;20992;-61
2021/01/11 08:38:00;;;;;;;92.57;51.87;;;;;;;0.05;64.28;98943.42;1770483;81;21478;-63
2021/01/11 08:40:32;;;;;;;27.98;17.92;;;;;;;0.08;64.24;98946.91;1770498;81;21545;-62
2021/01/11 08:43:19;;;;;;;28.70;21.07;;;;;;;0.10;64.19;98944.23;1770402;80;21440;-63
2021/01/11 08:45:45;;;;;;;35.38;24.70;;;;;;;0.12;64.22;98949.03;1770048;80;20928;-64
2021/01/11 08:48:14;;;;;;;40.12;23.67;;;;;;;0.14;64.14;98953.83;1770373;81;21371;-64
2021/01/11 08:50:56;;;;;;;35.70;21.80;;;;;;;0.14;64.05;98949.86;1770045;81;21584;-64
2021/01/11 08:53:34;;;;;;;19.70;14.65;;;;;;;0.14;64.32;98943.27;1767793;80;20932;-62
2021/01/11 08:56:06;;;;;;;14.70;12.00;;;;;;;0.15;64.12;98947.66;1770204;81;21211;-63
2021/01/11 08:58:37;;;;;;;18.93;12.47;;;;;;;0.17;63.22;98944.09;1770383;80;20933;-62
2021/01/11 09:01:19;;;;;;;17.37;13.13;;;;;;;0.21;63.62;98940.08;1769117;81;20936;-63
2021/01/11 09:03:53;;;;;;;18.35;11.73;;;;;;;0.23;63.60;98932.52;1770422;81;20984;-64
2021/01/11 09:06:46;;;;;;;17.27;13.88;;;;;;;0.26;63.98;98939.07;1770496;81;20976;-63
2021/01/11 09:09:18;;;;;;;21.95;14.83;;;;;;;0.29;64.18;98927.13;1770358;81;21387;-63
2021/01/11 09:11:48;;;;;;;12.28;11.00;;;;;;;0.32;63.77;98921.78;1770448;81;21425;-63
2021/01/11 09:14:18;;;;;;;17.27;13.68;;;;;;;0.35;63.44;98923.50;1770350;81;20893;-64
2021/01/11 09:16:46;;;;;;;14.53;12.35;;;;;;;0.37;63.83;98924.80;1770380;81;20957;-64
2021/01/11 09:19:18;;;;;;;22.32;16.00;;;;;;;0.42;63.92;98920.28;1770457;81;21473;-64
2021/01/11 09:22:03;;;;;;;16.70;13.38;;;;;;;0.46;64.06;98919.33;1770470;81;21047;-64
2021/01/11 09:24:31;;;;;;;21.95;14.35;;;;;;;0.52;64.09;98913.89;1770502;81;21008;-63
2021/01/11 09:26:58;;;;;;;34.05;17.67;;;;;;;0.58;64.14;98913.77;1770394;81;20957;-64
2021/01/11 09:29:26;;;;;;;23.27;15.10;;;;;;;0.63;63.88;98913.67;1770262;81;21012;-63
2021/01/11 09:31:54;;;;;;;25.48;17.67;;;;;;;0.65;64.20;98915.40;1770388;81;20925;-63
2021/01/11 09:34:23;;;;;;;18.57;13.72;;;;;;;0.67;63.30;98909.62;1770381;81;21159;-63
2021/01/11 09:36:52;;;;;;;23.38;15.85;;;;;;;0.72;63.28;98912.16;1770291;81;20992;-64
2021/01/11 09:39:21;;;;;;;22.55;14.87;;;;;;;0.76;63.51;98902.38;1770290;80;20940;-63
2021/01/11 09:41:57;;;;;;;27.62;18.07;;;;;;;0.79;63.43;98900.56;1770331;81;20945;-63
2021/01/11 09:44:25;;;;;;;22.55;15.58;;;;;;;0.83;63.62;98894.28;1770575;81;20877;-62
2021/01/11 09:46:55;;;;;;;18.87;15.53;;;;;;;0.86;63.74;98894.69;1770371;80;21379;-62
2021/01/11 09:49:23;;;;;;;19.45;15.70;;;;;;;0.89;63.61;98895.94;1770285;81;20937;-63
2021/01/11 09:51:50;;;;;;;25.88;16.07;;;;;;;0.89;63.42;98897.26;1770385;80;21429;-62
2021/01/11 09:54:21;;;;;;;28.23;19.42;;;;;;;0.92;63.73;98893.23;1770022;81;38673;-64
2021/01/11 09:56:48;;;;;;;20.45;14.70;;;;;;;0.94;63.93;98894.05;1770408;81;20993;-62
2021/01/11 09:59:15;;;;;;;17.75;11.75;;;;;;;0.95;63.65;98893.63;1776540;80;21383;-63
2021/01/11 10:01:48;;;;;;;45.12;29.32;;;;;;;0.93;63.41;98892.33;1779254;80;21971;-64
2021/01/11 10:04:18;;;;;;;17.85;11.10;;;;;;;0.95;63.69;98889.19;1779566;80;21020;-63
2021/01/11 10:06:51;;;;;;;16.45;12.60;;;;;;;0.96;63.57;98884.77;1779396;80;20928;-63
2021/01/11 10:09:22;;;;;;;19.10;13.88;;;;;;;0.97;63.69;98878.11;1779431;80;21000;-64
2021/01/11 10:11:56;;;;;;;18.45;13.20;;;;;;;0.99;63.95;98884.23;1779421;80;21433;-63
2021/01/11 10:14:23;;;;;;;15.00;11.80;;;;;;;1.00;63.76;98871.44;1779389;80;20948;-63
2021/01/11 10:16:52;;;;;;;21.02;16.55;;;;;;;1.04;63.72;98882.38;1779336;80;21461;-63
2021/01/11 10:19:24;;;;;;;15.15;13.13;;;;;;;1.08;63.53;98875.23;1779277;80;20988;-64
2021/01/11 10:21:52;;;;;;;28.20;17.90;;;;;;;1.07;63.39;98866.43;1779709;80;20928;-65
2021/01/11 10:24:21;;;;;;;42.00;24.63;;;;;;;1.08;63.55;98867.29;1779440;80;22124;-63
2021/01/11 10:26:50;;;;;;;33.48;20.65;;;;;;;1.04;63.50;98863.86;1779415;80;21544;-63
2021/01/11 10:29:19;;;;;;;17.67;14.83;;;;;;;1.07;63.62;98860.25;1779234;80;21051;-64
2021/01/11 10:31:47;;;;;;;14.35;12.55;;;;;;;1.06;63.82;98860.71;1779438;80;21496;-65
2021/01/11 10:34:17;;;;;;;15.65;12.20;;;;;;;1.06;63.46;98854.56;1779435;80;20901;-64
2021/01/11 10:36:48;;;;;;;17.90;13.90;;;;;;;1.08;63.46;98862.00;1779464;80;22250;-62
2021/01/11 10:39:22;;;;;;;22.87;13.43;;;;;;;1.11;63.42;98855.77;1778967;80;20916;-62
2021/01/11 10:41:51;;;;;;;16.97;12.28;;;;;;;1.12;63.71;98855.74;1779372;80;21007;-64
2021/01/11 10:44:22;;;;;;;20.80;12.70;;;;;;;1.14;64.23;98851.73;1779357;80;20984;-63
2021/01/11 10:46:50;;;;;;;15.18;13.10;;;;;;;1.14;64.58;98854.38;1779413;80;20991;-64
2021/01/11 10:49:18;;;;;;;14.53;12.07;;;;;;;1.13;63.80;98846.88;1779319;80;21374;-64
2021/01/11 10:51:48;;;;;;;22.85;11.48;;;;;;;1.15;63.63;98849.48;1779351;80;21043;-65
2021/01/11 10:54:15;;;;;;;13.93;11.45;;;;;;;1.16;63.81;98844.16;1779510;80;20992;-64
2021/01/11 10:56:43;;;;;;;13.43;12.03;;;;;;;1.18;63.78;98848.09;1779464;80;20909;-63
2021/01/11 10:59:11;;;;;;;14.33;11.57;;;;;;;1.18;63.60;98844.13;1774814;80;20933;-63
2021/01/11 11:01:38;;;;;;;18.98;11.05;;;;;;;1.17;63.42;98841.94;1770510;80;21263;-63
2021/01/11 11:04:06;;;;;;;21.73;13.83;;;;;;;1.16;63.58;98844.63;1770454;80;21016;-63
2021/01/11 11:06:34;;;;;;;31.45;15.75;;;;;;;1.13;63.70;98841.58;1770511;81;20933;-63
2021/01/11 11:09:02;;;;;;;21.40;17.70;;;;;;;1.13;64.02;98840.73;1770380;81;20917;-64
2021/01/11 11:11:29;;;;;;;20.80;13.95;;;;;;;1.14;64.33;98837.19;1770514;80;20988;-63
2021/01/11 11:13:58;;;;;;;16.87;14.10;;;;;;;1.14;64.09;98831.89;1770477;81;21200;-64
2021/01/11 11:16:26;;;;;;;15.83;11.93;;;;;;;1.14;64.00;98831.43;1770393;81;20949;-64
2021/01/11 11:18:54;;;;;;;19.05;13.90;;;;;;;1.13;63.94;98832.78;1770375;81;20929;-63
2021/01/11 11:21:22;;;;;;;12.73;11.03;;;;;;;1.11;64.05;98828.00;1770587;81;20933;-63
2021/01/11 11:23:49;;;;;;;17.87;13.80;;;;;;;1.11;63.31;98821.38;1770507;80;21001;-62
2021/01/11 11:26:20;;;;;;;21.73;13.45;;;;;;;1.12;63.54;98816.48;1770461;81;21432;-62
2021/01/11 11:28:49;;;;;;;11.33;10.13;;;;;;;1.12;63.49;98820.45;1770359;81;20992;-64
2021/01/11 11:31:16;;;;;;;13.88;10.72;;;;;;;1.09;62.30;98825.39;1770494;81;20932;-63
2021/01/11 11:33:45;;;;;;;12.70;10.93;;;;;;;1.10;62.23;98815.66;1767281;81;20897;-64
2021/01/11 11:36:12;;;;;;;16.62;12.85;;;;;;;1.11;62.41;98817.41;1770471;81;20936;-62
2021/01/11 11:38:40;;;;;;;21.20;12.68;;;;;;;1.10;62.71;98807.73;1770446;81;21442;-63
2021/01/11 11:41:08;;;;;;;20.35;13.93;;;;;;;1.11;62.75;98808.16;1770372;81;20949;-64
2021/01/11 11:43:35;;;;;;;12.75;9.33;;;;;;;1.11;62.81;98808.16;1770489;81;20944;-62